sensor_id;sensor_type;location;lat;lon;timestamp;P1;durP1;ratioP1;P2;durP2;ratioP2
70049;SDS011;57391;51.306;22.680;2023-01-15T00:02:09;15.30;;;7.70;;
70049;SDS011;57391;51.306;22.680;2023-01-15T00:04:38;10.10;;;5.20;;
70049;SDS011;57391;51.306;22.680;2023-01-15T00:07:05;14.90;;;7.90;;
70049;SDS011;57391;51.306;22.680;2023-01-15T00:09:32;14.80;;;6.80;;
70049;SDS011;57391;51.306;22.680;2023-01-15T00:11:59;12.80;;;7.20;;
70049;SDS011;57391;51.306;22.680;2023-01-15T00:14:27;14.50;;;7.30;;
70049;SDS011;57391;51.306;22.680;2023-01-15T00:16:54;14.80;;;6.80;;
70049;SDS011;57391;51.306;22.680;2023-01-15T00:19:21;13.00;;;6.10;;
70049;SDS011;57391;51.306;22.680;2023-01-15T00:21:49;14.70;;;7.10;;
70049;SDS011;57391;51.306;22.680;2023-01-15T00:24:15;12.60;;;6.00;;
70049;SDS011;57391;51.306;22.680;2023-01-15T00:27:01;11.80;;;6.90;;
70049;SDS011;57391;51.306;22.680;2023-01-15T00:29:47;14.30;;;6.80;;
70049;SDS011;57391;51.306;22.680;2023-01-15T00:32:14;13.00;;;6.30;;
70049;SDS011;57391;51.306;22.680;2023-01-15T00:34:41;9.60;;;5.10;;
70049;SDS011;57391;51.306;22.680;2023-01-15T00:37:08;13.40;;;6.60;;
70049;SDS011;57391;51.306;22.680;2023-01-15T00:39:35;12.00;;;6.60;;
70049;SDS011;57391;51.306;22.680;2023-01-15T00:42:03;10.70;;;5.80;;
70049;SDS011;57391;51.306;22.680;2023-01-15T00:44:32;9.90;;;5.40;;
70049;SDS011;57391;51.306;22.680;2023-01-15T00:46:59;10.40;;;5.30;;
70049;SDS011;57391;51.306;22.680;2023-01-15T00:49:27;9.80;;;5.60;;
70049;SDS011;57391;51.306;22.680;2023-01-15T00:51:54;12.60;;;6.10;;
70049;SDS011;57391;51.306;22.680;2023-01-15T00:54:22;12.80;;;6.20;;
70049;SDS011;57391;51.306;22.680;2023-01-15T00:56:49;11.20;;;6.00;;
70049;SDS011;57391;51.306;22.680;2023-01-15T00:59:16;10.20;;;5.50;;
70049;SDS011;57391;51.306;22.680;2023-01-15T01:01:43;12.20;;;6.00;;
70049;SDS011;57391;51.306;22.680;2023-01-15T01:04:10;10.80;;;6.00;;
70049;SDS011;57391;51.306;22.680;2023-01-15T01:06:37;10.20;;;4.70;;
70049;SDS011;57391;51.306;22.680;2023-01-15T01:09:04;11.70;;;6.20;;
70049;SDS011;57391;51.306;22.680;2023-01-15T01:11:32;10.60;;;5.30;;
70049;SDS011;57391;51.306;22.680;2023-01-15T01:14:00;12.10;;;6.40;;
70049;SDS011;57391;51.306;22.680;2023-01-15T01:16:39;9.80;;;5.00;;
70049;SDS011;57391;51.306;22.680;2023-01-15T01:19:16;10.60;;;5.40;;
70049;SDS011;57391;51.306;22.680;2023-01-15T01:21:46;10.80;;;5.70;;
70049;SDS011;57391;51.306;22.680;2023-01-15T01:24:17;11.90;;;5.00;;
70049;SDS011;57391;51.306;22.680;2023-01-15T01:26:47;8.80;;;4.60;;
70049;SDS011;57391;51.306;22.680;2023-01-15T01:29:17;11.00;;;5.80;;
70049;SDS011;57391;51.306;22.680;2023-01-15T01:31:46;9.30;;;4.20;;
70049;SDS011;57391;51.306;22.680;2023-01-15T01:34:14;10.00;;;4.90;;
70049;SDS011;57391;51.306;22.680;2023-01-15T01:36:42;8.90;;;4.30;;
70049;SDS011;57391;51.306;22.680;2023-01-15T01:39:15;10.80;;;5.50;;
70049;SDS011;57391;51.306;22.680;2023-01-15T01:41:44;9.90;;;5.30;;
70049;SDS011;57391;51.306;22.680;2023-01-15T01:47:04;10.20;;;4.40;;
70049;SDS011;57391;51.306;22.680;2023-01-15T01:49:38;10.80;;;4.80;;
70049;SDS011;57391;51.306;22.680;2023-01-15T01:52:08;12.50;;;5.10;;
70049;SDS011;57391;51.306;22.680;2023-01-15T01:54:44;10.20;;;4.10;;
70049;SDS011;57391;51.306;22.680;2023-01-15T01:57:15;9.60;;;5.00;;
70049;SDS011;57391;51.306;22.680;2023-01-15T01:59:44;9.60;;;4.70;;
70049;SDS011;57391;51.306;22.680;2023-01-15T02:02:13;9.10;;;4.20;;
70049;SDS011;57391;51.306;22.680;2023-01-15T02:04:41;11.30;;;4.80;;
70049;SDS011;57391;51.306;22.680;2023-01-15T02:07:09;13.60;;;6.00;;
70049;SDS011;57391;51.306;22.680;2023-01-15T02:09:37;11.20;;;5.00;;
70049;SDS011;57391;51.306;22.680;2023-01-15T02:12:15;10.50;;;5.10;;
70049;SDS011;57391;51.306;22.680;2023-01-15T02:15:13;11.70;;;4.80;;
70049;SDS011;57391;51.306;22.680;2023-01-15T02:20:55;10.10;;;4.70;;
70049;SDS011;57391;51.306;22.680;2023-01-15T02:29:58;9.00;;;4.00;;
70049;SDS011;57391;51.306;22.680;2023-01-15T02:32:38;8.50;;;3.90;;
70049;SDS011;57391;51.306;22.680;2023-01-15T02:35:17;10.50;;;5.10;;
70049;SDS011;57391;51.306;22.680;2023-01-15T02:37:59;10.10;;;4.80;;
70049;SDS011;57391;51.306;22.680;2023-01-15T02:40:30;10.40;;;5.00;;
70049;SDS011;57391;51.306;22.680;2023-01-15T02:43:00;9.90;;;5.00;;
70049;SDS011;57391;51.306;22.680;2023-01-15T02:45:32;10.40;;;4.50;;
70049;SDS011;57391;51.306;22.680;2023-01-15T02:48:12;7.60;;;3.80;;
70049;SDS011;57391;51.306;22.680;2023-01-15T02:50:47;13.90;;;4.80;;
70049;SDS011;57391;51.306;22.680;2023-01-15T02:53:25;9.10;;;4.30;;
70049;SDS011;57391;51.306;22.680;2023-01-15T02:56:02;8.70;;;4.40;;
70049;SDS011;57391;51.306;22.680;2023-01-15T02:58:37;10.00;;;4.50;;
70049;SDS011;57391;51.306;22.680;2023-01-15T03:01:14;9.70;;;5.00;;
70049;SDS011;57391;51.306;22.680;2023-01-15T03:03:51;10.80;;;3.90;;
70049;SDS011;57391;51.306;22.680;2023-01-15T03:09:21;10.00;;;3.90;;
70049;SDS011;57391;51.306;22.680;2023-01-15T03:14:40;10.10;;;4.50;;
70049;SDS011;57391;51.306;22.680;2023-01-15T03:17:20;8.90;;;4.50;;
70049;SDS011;57391;51.306;22.680;2023-01-15T03:19:57;9.80;;;4.30;;
70049;SDS011;57391;51.306;22.680;2023-01-15T03:22:38;12.20;;;4.40;;
70049;SDS011;57391;51.306;22.680;2023-01-15T03:25:20;9.60;;;4.40;;
70049;SDS011;57391;51.306;22.680;2023-01-15T03:27:57;12.10;;;4.90;;
70049;SDS011;57391;51.306;22.680;2023-01-15T03:30:28;9.50;;;4.60;;
70049;SDS011;57391;51.306;22.680;2023-01-15T03:32:55;14.70;;;4.60;;
70049;SDS011;57391;51.306;22.680;2023-01-15T03:35:53;11.90;;;5.80;;
70049;SDS011;57391;51.306;22.680;2023-01-15T03:38:33;10.40;;;4.40;;
70049;SDS011;57391;51.306;22.680;2023-01-15T03:41:23;9.30;;;3.90;;
70049;SDS011;57391;51.306;22.680;2023-01-15T03:47:15;8.50;;;4.00;;
70049;SDS011;57391;51.306;22.680;2023-01-15T03:56:04;9.40;;;4.30;;
70049;SDS011;57391;51.306;22.680;2023-01-15T03:59:10;10.50;;;4.70;;
70049;SDS011;57391;51.306;22.680;2023-01-15T04:01:55;9.90;;;4.30;;
70049;SDS011;57391;51.306;22.680;2023-01-15T04:04:25;9.20;;;4.60;;
70049;SDS011;57391;51.306;22.680;2023-01-15T04:06:54;9.20;;;4.00;;
70049;SDS011;57391;51.306;22.680;2023-01-15T04:09:22;10.00;;;4.80;;
70049;SDS011;57391;51.306;22.680;2023-01-15T04:11:51;8.00;;;4.00;;
70049;SDS011;57391;51.306;22.680;2023-01-15T04:14:18;7.90;;;4.20;;
70049;SDS011;57391;51.306;22.680;2023-01-15T04:16:53;9.70;;;4.70;;
70049;SDS011;57391;51.306;22.680;2023-01-15T04:19:23;9.90;;;4.70;;
70049;SDS011;57391;51.306;22.680;2023-01-15T04:22:03;9.10;;;4.00;;
70049;SDS011;57391;51.306;22.680;2023-01-15T04:24:31;8.80;;;4.20;;
70049;SDS011;57391;51.306;22.680;2023-01-15T04:26:58;9.20;;;4.00;;
70049;SDS011;57391;51.306;22.680;2023-01-15T04:29:25;11.30;;;5.10;;
70049;SDS011;57391;51.306;22.680;2023-01-15T04:31:52;10.30;;;5.20;;
70049;SDS011;57391;51.306;22.680;2023-01-15T04:34:24;9.40;;;3.60;;
70049;SDS011;57391;51.306;22.680;2023-01-15T04:36:54;9.40;;;4.50;;
70049;SDS011;57391;51.306;22.680;2023-01-15T04:39:22;11.00;;;4.90;;
70049;SDS011;57391;51.306;22.680;2023-01-15T04:41:49;8.60;;;4.60;;
70049;SDS011;57391;51.306;22.680;2023-01-15T04:44:36;8.70;;;4.00;;
70049;SDS011;57391;51.306;22.680;2023-01-15T04:47:05;9.90;;;4.30;;
70049;SDS011;57391;51.306;22.680;2023-01-15T04:49:33;10.40;;;4.80;;
70049;SDS011;57391;51.306;22.680;2023-01-15T04:52:00;9.10;;;4.30;;
70049;SDS011;57391;51.306;22.680;2023-01-15T04:54:28;7.60;;;3.60;;
70049;SDS011;57391;51.306;22.680;2023-01-15T04:56:55;10.30;;;5.10;;
70049;SDS011;57391;51.306;22.680;2023-01-15T04:59:24;9.60;;;4.70;;
70049;SDS011;57391;51.306;22.680;2023-01-15T05:01:52;9.50;;;4.40;;
70049;SDS011;57391;51.306;22.680;2023-01-15T05:04:20;9.80;;;4.20;;
70049;SDS011;57391;51.306;22.680;2023-01-15T05:06:47;9.60;;;4.40;;
70049;SDS011;57391;51.306;22.680;2023-01-15T05:09:15;7.50;;;3.50;;
70049;SDS011;57391;51.306;22.680;2023-01-15T05:11:42;8.80;;;3.40;;
70049;SDS011;57391;51.306;22.680;2023-01-15T05:14:09;10.30;;;4.80;;
70049;SDS011;57391;51.306;22.680;2023-01-15T05:16:36;8.80;;;3.70;;
70049;SDS011;57391;51.306;22.680;2023-01-15T05:19:05;9.80;;;3.60;;
70049;SDS011;57391;51.306;22.680;2023-01-15T05:21:38;9.00;;;4.10;;
70049;SDS011;57391;51.306;22.680;2023-01-15T05:24:07;8.30;;;3.70;;
70049;SDS011;57391;51.306;22.680;2023-01-15T05:26:39;8.40;;;3.80;;
70049;SDS011;57391;51.306;22.680;2023-01-15T05:29:07;10.60;;;4.30;;
70049;SDS011;57391;51.306;22.680;2023-01-15T05:31:34;7.40;;;3.60;;
70049;SDS011;57391;51.306;22.680;2023-01-15T05:34:01;10.10;;;5.10;;
70049;SDS011;57391;51.306;22.680;2023-01-15T05:36:30;9.60;;;3.90;;
70049;SDS011;57391;51.306;22.680;2023-01-15T05:38:58;9.30;;;3.90;;
70049;SDS011;57391;51.306;22.680;2023-01-15T05:41:28;10.90;;;4.00;;
70049;SDS011;57391;51.306;22.680;2023-01-15T05:44:26;8.60;;;3.50;;
70049;SDS011;57391;51.306;22.680;2023-01-15T05:46:57;10.10;;;4.50;;
70049;SDS011;57391;51.306;22.680;2023-01-15T05:49:26;9.50;;;4.20;;
70049;SDS011;57391;51.306;22.680;2023-01-15T05:51:56;11.40;;;4.50;;
70049;SDS011;57391;51.306;22.680;2023-01-15T05:54:29;11.40;;;4.50;;
70049;SDS011;57391;51.306;22.680;2023-01-15T05:57:01;5.90;;;2.80;;
70049;SDS011;57391;51.306;22.680;2023-01-15T05:59:29;9.00;;;4.50;;
70049;SDS011;57391;51.306;22.680;2023-01-15T06:01:57;10.40;;;4.30;;
70049;SDS011;57391;51.306;22.680;2023-01-15T06:04:25;11.40;;;4.80;;
70049;SDS011;57391;51.306;22.680;2023-01-15T06:06:53;10.60;;;4.70;;
70049;SDS011;57391;51.306;22.680;2023-01-15T06:09:23;7.90;;;3.50;;
70049;SDS011;57391;51.306;22.680;2023-01-15T06:11:51;9.60;;;4.10;;
70049;SDS011;57391;51.306;22.680;2023-01-15T06:14:20;8.40;;;3.70;;
70049;SDS011;57391;51.306;22.680;2023-01-15T06:16:47;9.70;;;4.60;;
70049;SDS011;57391;51.306;22.680;2023-01-15T06:19:14;8.60;;;3.40;;
70049;SDS011;57391;51.306;22.680;2023-01-15T06:21:42;7.90;;;3.40;;
70049;SDS011;57391;51.306;22.680;2023-01-15T06:24:10;9.60;;;4.30;;
70049;SDS011;57391;51.306;22.680;2023-01-15T06:26:37;8.60;;;3.70;;
70049;SDS011;57391;51.306;22.680;2023-01-15T06:29:05;10.10;;;4.50;;
70049;SDS011;57391;51.306;22.680;2023-01-15T06:31:32;9.80;;;4.20;;
70049;SDS011;57391;51.306;22.680;2023-01-15T06:34:00;11.40;;;4.20;;
70049;SDS011;57391;51.306;22.680;2023-01-15T06:36:27;10.50;;;4.10;;
70049;SDS011;57391;51.306;22.680;2023-01-15T06:38:55;9.60;;;3.80;;
70049;SDS011;57391;51.306;22.680;2023-01-15T06:41:25;9.00;;;3.70;;
70049;SDS011;57391;51.306;22.680;2023-01-15T06:44:14;9.90;;;3.30;;
70049;SDS011;57391;51.306;22.680;2023-01-15T06:47:13;8.60;;;4.10;;
70049;SDS011;57391;51.306;22.680;2023-01-15T06:49:50;10.20;;;4.00;;
70049;SDS011;57391;51.306;22.680;2023-01-15T06:52:20;8.30;;;3.90;;
70049;SDS011;57391;51.306;22.680;2023-01-15T06:54:48;9.50;;;3.80;;
70049;SDS011;57391;51.306;22.680;2023-01-15T06:57:15;9.50;;;4.10;;
70049;SDS011;57391;51.306;22.680;2023-01-15T06:59:44;9.90;;;4.20;;
70049;SDS011;57391;51.306;22.680;2023-01-15T07:02:12;8.50;;;3.60;;
70049;SDS011;57391;51.306;22.680;2023-01-15T07:04:40;9.30;;;4.30;;
70049;SDS011;57391;51.306;22.680;2023-01-15T07:07:07;8.40;;;3.80;;
70049;SDS011;57391;51.306;22.680;2023-01-15T07:09:34;10.30;;;4.20;;
70049;SDS011;57391;51.306;22.680;2023-01-15T07:12:02;8.60;;;4.30;;
70049;SDS011;57391;51.306;22.680;2023-01-15T07:14:29;9.60;;;3.90;;
70049;SDS011;57391;51.306;22.680;2023-01-15T07:16:57;8.90;;;3.80;;
70049;SDS011;57391;51.306;22.680;2023-01-15T07:19:25;9.50;;;3.90;;
70049;SDS011;57391;51.306;22.680;2023-01-15T07:21:53;10.40;;;4.70;;
70049;SDS011;57391;51.306;22.680;2023-01-15T07:24:21;11.10;;;3.40;;
70049;SDS011;57391;51.306;22.680;2023-01-15T07:26:48;9.40;;;3.90;;
70049;SDS011;57391;51.306;22.680;2023-01-15T07:29:16;9.90;;;4.20;;
70049;SDS011;57391;51.306;22.680;2023-01-15T07:31:43;10.80;;;4.30;;
70049;SDS011;57391;51.306;22.680;2023-01-15T07:34:10;8.70;;;3.20;;
70049;SDS011;57391;51.306;22.680;2023-01-15T07:36:38;9.90;;;3.80;;
70049;SDS011;57391;51.306;22.680;2023-01-15T07:39:07;11.30;;;4.90;;
70049;SDS011;57391;51.306;22.680;2023-01-15T07:41:37;8.90;;;3.60;;
70049;SDS011;57391;51.306;22.680;2023-01-15T07:44:23;11.20;;;4.40;;
70049;SDS011;57391;51.306;22.680;2023-01-15T07:47:21;7.40;;;3.60;;
70049;SDS011;57391;51.306;22.680;2023-01-15T07:50:21;11.30;;;4.30;;
70049;SDS011;57391;51.306;22.680;2023-01-15T07:52:50;9.80;;;3.90;;
70049;SDS011;57391;51.306;22.680;2023-01-15T07:55:18;10.70;;;4.30;;
70049;SDS011;57391;51.306;22.680;2023-01-15T07:57:45;9.70;;;4.30;;
70049;SDS011;57391;51.306;22.680;2023-01-15T08:00:18;9.90;;;4.00;;
70049;SDS011;57391;51.306;22.680;2023-01-15T08:02:47;9.30;;;4.50;;
70049;SDS011;57391;51.306;22.680;2023-01-15T08:05:17;11.50;;;4.90;;
70049;SDS011;57391;51.306;22.680;2023-01-15T08:07:45;11.20;;;4.10;;
70049;SDS011;57391;51.306;22.680;2023-01-15T08:10:13;10.80;;;4.60;;
70049;SDS011;57391;51.306;22.680;2023-01-15T08:12:40;10.90;;;4.40;;
70049;SDS011;57391;51.306;22.680;2023-01-15T08:15:31;9.90;;;4.20;;
70049;SDS011;57391;51.306;22.680;2023-01-15T08:18:00;9.90;;;4.20;;
70049;SDS011;57391;51.306;22.680;2023-01-15T08:20:28;9.90;;;4.00;;
70049;SDS011;57391;51.306;22.680;2023-01-15T08:22:55;8.90;;;3.50;;
70049;SDS011;57391;51.306;22.680;2023-01-15T08:25:23;11.10;;;4.10;;
70049;SDS011;57391;51.306;22.680;2023-01-15T08:27:52;10.30;;;3.80;;
70049;SDS011;57391;51.306;22.680;2023-01-15T08:30:22;9.60;;;4.60;;
70049;SDS011;57391;51.306;22.680;2023-01-15T08:32:51;9.20;;;3.50;;
70049;SDS011;57391;51.306;22.680;2023-01-15T08:35:18;8.10;;;3.30;;
70049;SDS011;57391;51.306;22.680;2023-01-15T08:37:45;7.40;;;3.20;;
70049;SDS011;57391;51.306;22.680;2023-01-15T08:40:13;9.50;;;4.20;;
70049;SDS011;57391;51.306;22.680;2023-01-15T08:42:40;8.60;;;3.50;;
70049;SDS011;57391;51.306;22.680;2023-01-15T08:45:08;7.70;;;3.70;;
70049;SDS011;57391;51.306;22.680;2023-01-15T08:47:36;8.60;;;3.90;;
70049;SDS011;57391;51.306;22.680;2023-01-15T08:50:04;8.80;;;3.90;;
70049;SDS011;57391;51.306;22.680;2023-01-15T08:52:34;10.40;;;4.90;;
70049;SDS011;57391;51.306;22.680;2023-01-15T08:55:03;12.10;;;5.50;;
70049;SDS011;57391;51.306;22.680;2023-01-15T08:57:32;11.30;;;4.30;;
70049;SDS011;57391;51.306;22.680;2023-01-15T08:59:59;10.60;;;4.20;;
70049;SDS011;57391;51.306;22.680;2023-01-15T09:02:26;11.20;;;4.40;;
70049;SDS011;57391;51.306;22.680;2023-01-15T09:04:55;7.90;;;3.50;;
70049;SDS011;57391;51.306;22.680;2023-01-15T09:07:23;9.10;;;3.80;;
70049;SDS011;57391;51.306;22.680;2023-01-15T09:09:50;12.40;;;5.30;;
70049;SDS011;57391;51.306;22.680;2023-01-15T09:12:18;9.30;;;3.90;;
70049;SDS011;57391;51.306;22.680;2023-01-15T09:14:45;12.50;;;4.50;;
70049;SDS011;57391;51.306;22.680;2023-01-15T09:17:12;9.70;;;4.10;;
70049;SDS011;57391;51.306;22.680;2023-01-15T09:19:39;11.80;;;5.40;;
70049;SDS011;57391;51.306;22.680;2023-01-15T09:22:07;11.40;;;4.30;;
70049;SDS011;57391;51.306;22.680;2023-01-15T09:24:34;8.60;;;3.70;;
70049;SDS011;57391;51.306;22.680;2023-01-15T09:27:01;10.10;;;4.40;;
70049;SDS011;57391;51.306;22.680;2023-01-15T09:29:29;9.70;;;4.00;;
70049;SDS011;57391;51.306;22.680;2023-01-15T09:31:56;10.30;;;4.20;;
70049;SDS011;57391;51.306;22.680;2023-01-15T09:34:24;10.10;;;4.40;;
70049;SDS011;57391;51.306;22.680;2023-01-15T09:36:51;11.60;;;5.10;;
70049;SDS011;57391;51.306;22.680;2023-01-15T09:39:18;11.10;;;4.20;;
70049;SDS011;57391;51.306;22.680;2023-01-15T09:45:11;8.40;;;3.60;;
70049;SDS011;57391;51.306;22.680;2023-01-15T09:56:26;13.40;;;5.30;;
70049;SDS011;57391;51.306;22.680;2023-01-15T09:58:57;9.90;;;4.70;;
70049;SDS011;57391;51.306;22.680;2023-01-15T10:01:28;8.60;;;4.10;;
70049;SDS011;57391;51.306;22.680;2023-01-15T10:04:05;9.30;;;4.00;;
70049;SDS011;57391;51.306;22.680;2023-01-15T10:06:50;9.50;;;4.50;;
70049;SDS011;57391;51.306;22.680;2023-01-15T10:09:29;11.30;;;5.00;;
70049;SDS011;57391;51.306;22.680;2023-01-15T10:12:12;11.60;;;4.20;;
70049;SDS011;57391;51.306;22.680;2023-01-15T10:15:30;9.60;;;3.90;;
70049;SDS011;57391;51.306;22.680;2023-01-15T10:17:59;9.10;;;3.80;;
70049;SDS011;57391;51.306;22.680;2023-01-15T10:20:51;12.00;;;5.20;;
70049;SDS011;57391;51.306;22.680;2023-01-15T10:23:41;14.60;;;5.30;;
70049;SDS011;57391;51.306;22.680;2023-01-15T10:26:56;10.60;;;4.80;;
70049;SDS011;57391;51.306;22.680;2023-01-15T10:29:51;13.30;;;4.90;;
70049;SDS011;57391;51.306;22.680;2023-01-15T10:32:45;9.80;;;4.70;;
70049;SDS011;57391;51.306;22.680;2023-01-15T10:37:57;13.60;;;5.20;;
70049;SDS011;57391;51.306;22.680;2023-01-15T10:41:16;12.40;;;5.30;;
70049;SDS011;57391;51.306;22.680;2023-01-15T10:44:08;13.40;;;5.60;;
70049;SDS011;57391;51.306;22.680;2023-01-15T10:46:48;10.70;;;4.60;;
70049;SDS011;57391;51.306;22.680;2023-01-15T10:49:27;13.40;;;5.20;;
70049;SDS011;57391;51.306;22.680;2023-01-15T10:52:15;12.20;;;5.80;;
70049;SDS011;57391;51.306;22.680;2023-01-15T10:55:02;10.10;;;4.50;;
70049;SDS011;57391;51.306;22.680;2023-01-15T10:57:45;12.20;;;5.30;;
70049;SDS011;57391;51.306;22.680;2023-01-15T11:00:19;9.60;;;4.80;;
70049;SDS011;57391;51.306;22.680;2023-01-15T11:03:02;14.30;;;5.50;;
70049;SDS011;57391;51.306;22.680;2023-01-15T11:05:35;12.80;;;5.40;;
70049;SDS011;57391;51.306;22.680;2023-01-15T11:08:07;13.70;;;4.30;;
70049;SDS011;57391;51.306;22.680;2023-01-15T11:10:39;10.50;;;5.00;;
70049;SDS011;57391;51.306;22.680;2023-01-15T11:13:19;13.70;;;5.20;;
70049;SDS011;57391;51.306;22.680;2023-01-15T11:16:21;12.00;;;4.60;;
70049;SDS011;57391;51.306;22.680;2023-01-15T11:22:17;11.50;;;5.10;;
70049;SDS011;57391;51.306;22.680;2023-01-15T11:24:52;11.80;;;5.20;;
70049;SDS011;57391;51.306;22.680;2023-01-15T11:27:28;10.00;;;4.20;;
70049;SDS011;57391;51.306;22.680;2023-01-15T11:30:02;9.90;;;3.90;;
70049;SDS011;57391;51.306;22.680;2023-01-15T11:32:34;9.90;;;4.70;;
70049;SDS011;57391;51.306;22.680;2023-01-15T11:35:23;12.00;;;4.40;;
70049;SDS011;57391;51.306;22.680;2023-01-15T11:38:10;11.00;;;4.30;;
70049;SDS011;57391;51.306;22.680;2023-01-15T11:40:50;13.40;;;4.90;;
70049;SDS011;57391;51.306;22.680;2023-01-15T11:43:24;9.00;;;4.00;;
70049;SDS011;57391;51.306;22.680;2023-01-15T11:46:40;9.60;;;4.10;;
70049;SDS011;57391;51.306;22.680;2023-01-15T11:49:29;9.00;;;4.20;;
70049;SDS011;57391;51.306;22.680;2023-01-15T11:52:18;9.90;;;4.40;;
70049;SDS011;57391;51.306;22.680;2023-01-15T11:54:51;11.60;;;4.80;;
70049;SDS011;57391;51.306;22.680;2023-01-15T11:57:24;16.30;;;4.40;;
70049;SDS011;57391;51.306;22.680;2023-01-15T11:59:56;10.80;;;4.70;;
70049;SDS011;57391;51.306;22.680;2023-01-15T12:02:36;9.20;;;3.90;;
70049;SDS011;57391;51.306;22.680;2023-01-15T12:05:33;8.80;;;4.20;;
70049;SDS011;57391;51.306;22.680;2023-01-15T12:08:25;8.90;;;4.10;;
70049;SDS011;57391;51.306;22.680;2023-01-15T12:11:38;9.90;;;3.80;;
70049;SDS011;57391;51.306;22.680;2023-01-15T12:21:38;8.20;;;3.50;;
70049;SDS011;57391;51.306;22.680;2023-01-15T12:32:32;10.40;;;4.10;;
70049;SDS011;57391;51.306;22.680;2023-01-15T12:35:29;9.90;;;4.10;;
70049;SDS011;57391;51.306;22.680;2023-01-15T12:38:08;11.50;;;4.80;;
70049;SDS011;57391;51.306;22.680;2023-01-15T12:40:48;8.30;;;3.80;;
70049;SDS011;57391;51.306;22.680;2023-01-15T12:43:24;8.60;;;3.50;;
70049;SDS011;57391;51.306;22.680;2023-01-15T12:46:18;7.40;;;3.30;;
70049;SDS011;57391;51.306;22.680;2023-01-15T12:49:03;8.10;;;2.90;;
70049;SDS011;57391;51.306;22.680;2023-01-15T12:51:56;9.20;;;3.80;;
70049;SDS011;57391;51.306;22.680;2023-01-15T12:54:36;11.00;;;4.40;;
70049;SDS011;57391;51.306;22.680;2023-01-15T12:57:34;10.00;;;3.70;;
70049;SDS011;57391;51.306;22.680;2023-01-15T13:03:24;9.00;;;3.70;;
70049;SDS011;57391;51.306;22.680;2023-01-15T13:05:58;9.50;;;3.80;;
70049;SDS011;57391;51.306;22.680;2023-01-15T13:11:04;10.60;;;3.80;;
70049;SDS011;57391;51.306;22.680;2023-01-15T13:13:37;13.20;;;3.60;;
70049;SDS011;57391;51.306;22.680;2023-01-15T13:16:17;11.00;;;4.00;;
70049;SDS011;57391;51.306;22.680;2023-01-15T13:19:08;14.10;;;5.70;;
70049;SDS011;57391;51.306;22.680;2023-01-15T13:21:41;11.30;;;4.20;;
70049;SDS011;57391;51.306;22.680;2023-01-15T13:24:52;8.50;;;3.20;;
70049;SDS011;57391;51.306;22.680;2023-01-15T13:33:53;11.70;;;4.60;;
70049;SDS011;57391;51.306;22.680;2023-01-15T13:36:36;12.20;;;4.40;;
70049;SDS011;57391;51.306;22.680;2023-01-15T13:39:18;9.40;;;3.70;;
70049;SDS011;57391;51.306;22.680;2023-01-15T13:41:52;8.70;;;3.10;;
70049;SDS011;57391;51.306;22.680;2023-01-15T13:44:48;9.00;;;4.00;;
70049;SDS011;57391;51.306;22.680;2023-01-15T13:47:24;9.90;;;4.30;;
70049;SDS011;57391;51.306;22.680;2023-01-15T13:50:02;9.00;;;3.40;;
70049;SDS011;57391;51.306;22.680;2023-01-15T13:52:36;10.10;;;3.60;;
70049;SDS011;57391;51.306;22.680;2023-01-15T13:55:34;9.90;;;3.80;;
70049;SDS011;57391;51.306;22.680;2023-01-15T13:58:25;8.90;;;3.50;;
70049;SDS011;57391;51.306;22.680;2023-01-15T14:04:05;11.10;;;4.00;;
70049;SDS011;57391;51.306;22.680;2023-01-15T14:06:50;8.00;;;3.00;;
70049;SDS011;57391;51.306;22.680;2023-01-15T14:12:16;11.20;;;3.30;;
70049;SDS011;57391;51.306;22.680;2023-01-15T14:15:26;8.80;;;3.40;;
70049;SDS011;57391;51.306;22.680;2023-01-15T14:18:10;10.10;;;3.70;;
70049;SDS011;57391;51.306;22.680;2023-01-15T14:24:07;12.40;;;4.40;;
70049;SDS011;57391;51.306;22.680;2023-01-15T14:30:12;13.60;;;5.90;;
70049;SDS011;57391;51.306;22.680;2023-01-15T14:33:29;10.80;;;4.60;;
70049;SDS011;57391;51.306;22.680;2023-01-15T14:36:31;12.70;;;4.60;;
70049;SDS011;57391;51.306;22.680;2023-01-15T14:39:21;10.40;;;4.50;;
70049;SDS011;57391;51.306;22.680;2023-01-15T14:42:05;10.70;;;4.70;;
70049;SDS011;57391;51.306;22.680;2023-01-15T14:45:02;15.50;;;5.60;;
70049;SDS011;57391;51.306;22.680;2023-01-15T14:47:47;16.10;;;5.90;;
70049;SDS011;57391;51.306;22.680;2023-01-15T15:04:10;10.90;;;5.10;;
70049;SDS011;57391;51.306;22.680;2023-01-15T15:18:14;9.20;;;4.20;;
70049;SDS011;57391;51.306;22.680;2023-01-15T15:21:00;11.70;;;4.10;;
70049;SDS011;57391;51.306;22.680;2023-01-15T15:31:24;14.30;;;6.10;;
70049;SDS011;57391;51.306;22.680;2023-01-15T15:33:54;14.80;;;5.50;;
70049;SDS011;57391;51.306;22.680;2023-01-15T15:36:24;10.70;;;4.80;;
70049;SDS011;57391;51.306;22.680;2023-01-15T15:38:58;9.90;;;4.20;;
70049;SDS011;57391;51.306;22.680;2023-01-15T15:41:30;10.90;;;4.30;;
70049;SDS011;57391;51.306;22.680;2023-01-15T15:44:52;10.00;;;4.10;;
70049;SDS011;57391;51.306;22.680;2023-01-15T15:47:42;14.90;;;5.60;;
70049;SDS011;57391;51.306;22.680;2023-01-15T15:50:32;14.60;;;5.30;;
70049;SDS011;57391;51.306;22.680;2023-01-15T15:53:00;12.20;;;4.60;;
70049;SDS011;57391;51.306;22.680;2023-01-15T15:55:38;11.70;;;4.80;;
70049;SDS011;57391;51.306;22.680;2023-01-15T15:58:17;12.00;;;4.90;;
70049;SDS011;57391;51.306;22.680;2023-01-15T16:00:51;11.40;;;5.20;;
70049;SDS011;57391;51.306;22.680;2023-01-15T16:03:26;8.80;;;4.10;;
70049;SDS011;57391;51.306;22.680;2023-01-15T16:06:04;12.40;;;4.90;;
70049;SDS011;57391;51.306;22.680;2023-01-15T16:08:34;11.50;;;5.00;;
70049;SDS011;57391;51.306;22.680;2023-01-15T16:11:05;12.60;;;5.20;;
70049;SDS011;57391;51.306;22.680;2023-01-15T16:13:46;11.40;;;4.10;;
70049;SDS011;57391;51.306;22.680;2023-01-15T16:16:16;13.50;;;5.60;;
70049;SDS011;57391;51.306;22.680;2023-01-15T16:18:48;12.00;;;5.30;;
70049;SDS011;57391;51.306;22.680;2023-01-15T16:24:07;14.50;;;5.80;;
70049;SDS011;57391;51.306;22.680;2023-01-15T16:27:02;15.30;;;6.60;;
70049;SDS011;57391;51.306;22.680;2023-01-15T16:29:34;12.40;;;5.70;;
70049;SDS011;57391;51.306;22.680;2023-01-15T16:32:12;12.90;;;5.90;;
70049;SDS011;57391;51.306;22.680;2023-01-15T16:34:40;13.00;;;5.10;;
70049;SDS011;57391;51.306;22.680;2023-01-15T16:37:34;14.00;;;6.20;;
70049;SDS011;57391;51.306;22.680;2023-01-15T16:40:03;16.20;;;6.70;;
70049;SDS011;57391;51.306;22.680;2023-01-15T16:42:37;13.60;;;6.20;;
70049;SDS011;57391;51.306;22.680;2023-01-15T16:45:19;16.80;;;6.80;;
70049;SDS011;57391;51.306;22.680;2023-01-15T16:50:38;14.70;;;5.60;;
70049;SDS011;57391;51.306;22.680;2023-01-15T16:53:29;15.10;;;5.80;;
70049;SDS011;57391;51.306;22.680;2023-01-15T16:55:58;17.10;;;6.60;;
70049;SDS011;57391;51.306;22.680;2023-01-15T16:58:32;18.30;;;8.20;;
70049;SDS011;57391;51.306;22.680;2023-01-15T17:04:32;17.70;;;6.40;;
70049;SDS011;57391;51.306;22.680;2023-01-15T17:07:04;15.90;;;6.70;;
70049;SDS011;57391;51.306;22.680;2023-01-15T17:09:33;13.60;;;6.30;;
70049;SDS011;57391;51.306;22.680;2023-01-15T17:12:07;15.50;;;7.20;;
70049;SDS011;57391;51.306;22.680;2023-01-15T17:14:44;17.30;;;6.40;;
70049;SDS011;57391;51.306;22.680;2023-01-15T17:19:49;16.20;;;6.80;;
70049;SDS011;57391;51.306;22.680;2023-01-15T17:22:25;20.50;;;7.90;;
70049;SDS011;57391;51.306;22.680;2023-01-15T17:24:57;17.10;;;7.00;;